sensor_id;sensor_type;location;lat;lon;timestamp;P1;durP1;ratioP1;P2;durP2;ratioP2
73550;SDS011;61816;53.582;10.096;2023-10-09T00:01:01;14.18;;;3.80;;
73550;SDS011;61816;53.582;10.096;2023-10-09T00:03:38;7.78;;;3.53;;
73550;SDS011;61816;53.582;10.096;2023-10-09T00:06:09;8.25;;;3.47;;
73550;SDS011;61816;53.582;10.096;2023-10-09T00:08:38;8.82;;;3.67;;
73550;SDS011;61816;53.582;10.096;2023-10-09T00:11:04;11.80;;;3.65;;
73550;SDS011;61816;53.582;10.096;2023-10-09T00:13:42;16.13;;;4.43;;
73550;SDS011;61816;53.582;10.096;2023-10-09T00:16:18;9.40;;;4.25;;
73550;SDS011;61816;53.582;10.096;2023-10-09T00:19:06;8.90;;;3.55;;
73550;SDS011;61816;53.582;10.096;2023-10-09T00:21:55;7.43;;;3.63;;
73550;SDS011;61816;53.582;10.096;2023-10-09T00:24:21;14.85;;;4.00;;
73550;SDS011;61816;53.582;10.096;2023-10-09T00:26:53;18.80;;;3.92;;
73550;SDS011;61816;53.582;10.096;2023-10-09T00:29:36;12.73;;;3.95;;
73550;SDS011;61816;53.582;10.096;2023-10-09T00:32:07;10.15;;;3.85;;
73550;SDS011;61816;53.582;10.096;2023-10-09T00:34:42;14.23;;;3.22;;
73550;SDS011;61816;53.582;10.096;2023-10-09T00:37:11;14.82;;;4.25;;
73550;SDS011;61816;53.582;10.096;2023-10-09T00:39:47;10.02;;;3.30;;
73550;SDS011;61816;53.582;10.096;2023-10-09T00:42:20;13.48;;;4.00;;
73550;SDS011;61816;53.582;10.096;2023-10-09T00:44:58;10.93;;;3.40;;
73550;SDS011;61816;53.582;10.096;2023-10-09T00:47:33;10.35;;;3.83;;
73550;SDS011;61816;53.582;10.096;2023-10-09T00:50:04;11.35;;;3.38;;
73550;SDS011;61816;53.582;10.096;2023-10-09T00:52:41;11.43;;;4.00;;
73550;SDS011;61816;53.582;10.096;2023-10-09T00:55:14;22.05;;;4.20;;
73550;SDS011;61816;53.582;10.096;2023-10-09T00:57:46;17.38;;;5.45;;
73550;SDS011;61816;53.582;10.096;2023-10-09T01:00:23;22.70;;;5.13;;
73550;SDS011;61816;53.582;10.096;2023-10-09T01:03:03;14.75;;;3.90;;
73550;SDS011;61816;53.582;10.096;2023-10-09T01:08:24;14.70;;;3.78;;
73550;SDS011;61816;53.582;10.096;2023-10-09T01:11:11;12.15;;;3.55;;
73550;SDS011;61816;53.582;10.096;2023-10-09T01:13:54;32.95;;;4.15;;
73550;SDS011;61816;53.582;10.096;2023-10-09T01:16:36;10.80;;;3.40;;
73550;SDS011;61816;53.582;10.096;2023-10-09T01:19:03;11.55;;;4.28;;
73550;SDS011;61816;53.582;10.096;2023-10-09T01:21:38;9.35;;;3.30;;
73550;SDS011;61816;53.582;10.096;2023-10-09T01:24:05;11.07;;;3.80;;
73550;SDS011;61816;53.582;10.096;2023-10-09T01:26:40;15.98;;;3.28;;
73550;SDS011;61816;53.582;10.096;2023-10-09T01:29:10;10.55;;;3.72;;
73550;SDS011;61816;53.582;10.096;2023-10-09T01:31:46;9.20;;;3.17;;
73550;SDS011;61816;53.582;10.096;2023-10-09T01:34:19;11.15;;;4.20;;
73550;SDS011;61816;53.582;10.096;2023-10-09T01:37:07;16.40;;;3.78;;
73550;SDS011;61816;53.582;10.096;2023-10-09T01:39:54;14.27;;;4.10;;
73550;SDS011;61816;53.582;10.096;2023-10-09T01:42:23;6.75;;;3.00;;
73550;SDS011;61816;53.582;10.096;2023-10-09T01:45:10;10.07;;;3.38;;
73550;SDS011;61816;53.582;10.096;2023-10-09T01:47:55;5.82;;;2.63;;
73550;SDS011;61816;53.582;10.096;2023-10-09T01:50:20;10.95;;;2.88;;
73550;SDS011;61816;53.582;10.096;2023-10-09T01:52:49;13.07;;;3.60;;
73550;SDS011;61816;53.582;10.096;2023-10-09T01:55:16;9.05;;;3.08;;
73550;SDS011;61816;53.582;10.096;2023-10-09T01:58:04;14.65;;;3.88;;
73550;SDS011;61816;53.582;10.096;2023-10-09T02:00:42;10.27;;;3.55;;
73550;SDS011;61816;53.582;10.096;2023-10-09T02:03:08;16.77;;;3.10;;
73550;SDS011;61816;53.582;10.096;2023-10-09T02:05:37;8.00;;;2.80;;
73550;SDS011;61816;53.582;10.096;2023-10-09T02:08:03;5.97;;;3.15;;
73550;SDS011;61816;53.582;10.096;2023-10-09T02:10:30;12.68;;;3.70;;
73550;SDS011;61816;53.582;10.096;2023-10-09T02:12:56;12.70;;;3.92;;
73550;SDS011;61816;53.582;10.096;2023-10-09T02:15:28;12.23;;;3.60;;
73550;SDS011;61816;53.582;10.096;2023-10-09T02:20:46;7.13;;;3.35;;
73550;SDS011;61816;53.582;10.096;2023-10-09T02:23:29;10.30;;;4.00;;
73550;SDS011;61816;53.582;10.096;2023-10-09T02:26:15;12.23;;;3.75;;
73550;SDS011;61816;53.582;10.096;2023-10-09T02:28:49;13.40;;;4.35;;
73550;SDS011;61816;53.582;10.096;2023-10-09T02:31:24;8.20;;;3.30;;
73550;SDS011;61816;53.582;10.096;2023-10-09T02:33:53;10.07;;;3.20;;
73550;SDS011;61816;53.582;10.096;2023-10-09T02:36:20;9.60;;;3.72;;
73550;SDS011;61816;53.582;10.096;2023-10-09T02:38:49;6.75;;;3.33;;
73550;SDS011;61816;53.582;10.096;2023-10-09T02:41:18;12.85;;;3.97;;
73550;SDS011;61816;53.582;10.096;2023-10-09T02:43:46;12.00;;;4.80;;
73550;SDS011;61816;53.582;10.096;2023-10-09T02:46:15;12.02;;;4.97;;
73550;SDS011;61816;53.582;10.096;2023-10-09T02:48:55;14.63;;;4.00;;
73550;SDS011;61816;53.582;10.096;2023-10-09T02:51:23;9.52;;;4.22;;
73550;SDS011;61816;53.582;10.096;2023-10-09T02:53:53;15.30;;;4.07;;
73550;SDS011;61816;53.582;10.096;2023-10-09T02:56:19;10.00;;;3.75;;
73550;SDS011;61816;53.582;10.096;2023-10-09T02:58:52;11.88;;;4.30;;
73550;SDS011;61816;53.582;10.096;2023-10-09T03:01:18;10.23;;;3.50;;
73550;SDS011;61816;53.582;10.096;2023-10-09T03:03:44;12.77;;;3.40;;
73550;SDS011;61816;53.582;10.096;2023-10-09T03:06:14;11.65;;;3.47;;
73550;SDS011;61816;53.582;10.096;2023-10-09T03:08:50;10.27;;;3.72;;
73550;SDS011;61816;53.582;10.096;2023-10-09T03:11:16;24.08;;;4.25;;
73550;SDS011;61816;53.582;10.096;2023-10-09T03:13:44;8.07;;;3.92;;
73550;SDS011;61816;53.582;10.096;2023-10-09T03:16:11;13.85;;;3.70;;
73550;SDS011;61816;53.582;10.096;2023-10-09T03:18:44;8.32;;;3.33;;
73550;SDS011;61816;53.582;10.096;2023-10-09T03:21:12;12.10;;;4.25;;
73550;SDS011;61816;53.582;10.096;2023-10-09T03:23:37;16.13;;;3.28;;
73550;SDS011;61816;53.582;10.096;2023-10-09T03:26:03;14.20;;;3.00;;
73550;SDS011;61816;53.582;10.096;2023-10-09T03:28:29;10.10;;;3.45;;
73550;SDS011;61816;53.582;10.096;2023-10-09T03:30:54;8.43;;;3.47;;
73550;SDS011;61816;53.582;10.096;2023-10-09T03:33:20;9.43;;;3.40;;
73550;SDS011;61816;53.582;10.096;2023-10-09T03:35:45;13.80;;;4.05;;
73550;SDS011;61816;53.582;10.096;2023-10-09T03:38:11;10.60;;;3.00;;
73550;SDS011;61816;53.582;10.096;2023-10-09T03:40:44;13.13;;;3.97;;
73550;SDS011;61816;53.582;10.096;2023-10-09T03:43:13;10.75;;;3.42;;
73550;SDS011;61816;53.582;10.096;2023-10-09T03:45:39;10.18;;;3.50;;
73550;SDS011;61816;53.582;10.096;2023-10-09T03:48:17;9.52;;;3.35;;
73550;SDS011;61816;53.582;10.096;2023-10-09T03:50:50;10.65;;;3.15;;
73550;SDS011;61816;53.582;10.096;2023-10-09T03:53:33;7.30;;;4.03;;
73550;SDS011;61816;53.582;10.096;2023-10-09T03:56:01;8.75;;;3.22;;
73550;SDS011;61816;53.582;10.096;2023-10-09T03:58:34;12.60;;;3.78;;
73550;SDS011;61816;53.582;10.096;2023-10-09T04:00:59;10.82;;;3.97;;
73550;SDS011;61816;53.582;10.096;2023-10-09T04:03:25;21.13;;;3.63;;
73550;SDS011;61816;53.582;10.096;2023-10-09T04:05:56;10.18;;;3.25;;
73550;SDS011;61816;53.582;10.096;2023-10-09T04:08:21;9.75;;;3.97;;
73550;SDS011;61816;53.582;10.096;2023-10-09T04:10:57;12.73;;;3.42;;
73550;SDS011;61816;53.582;10.096;2023-10-09T04:13:27;8.95;;;3.33;;
73550;SDS011;61816;53.582;10.096;2023-10-09T04:16:00;8.10;;;3.05;;
73550;SDS011;61816;53.582;10.096;2023-10-09T04:18:55;16.45;;;3.15;;
73550;SDS011;61816;53.582;10.096;2023-10-09T04:21:24;8.32;;;3.22;;
73550;SDS011;61816;53.582;10.096;2023-10-09T04:24:03;13.32;;;2.88;;
73550;SDS011;61816;53.582;10.096;2023-10-09T04:26:43;10.57;;;3.85;;
73550;SDS011;61816;53.582;10.096;2023-10-09T04:29:16;8.85;;;3.08;;
73550;SDS011;61816;53.582;10.096;2023-10-09T04:31:55;11.70;;;4.05;;
73550;SDS011;61816;53.582;10.096;2023-10-09T04:34:27;10.93;;;3.67;;
73550;SDS011;61816;53.582;10.096;2023-10-09T04:36:52;11.73;;;3.50;;
73550;SDS011;61816;53.582;10.096;2023-10-09T04:39:47;10.88;;;2.83;;
73550;SDS011;61816;53.582;10.096;2023-10-09T04:42:26;10.40;;;3.40;;
73550;SDS011;61816;53.582;10.096;2023-10-09T04:45:05;13.50;;;3.78;;
73550;SDS011;61816;53.582;10.096;2023-10-09T04:47:34;9.68;;;2.90;;
73550;SDS011;61816;53.582;10.096;2023-10-09T04:50:10;8.10;;;3.20;;
73550;SDS011;61816;53.582;10.096;2023-10-09T04:52:39;8.80;;;3.47;;
73550;SDS011;61816;53.582;10.096;2023-10-09T04:55:04;8.45;;;3.00;;
73550;SDS011;61816;53.582;10.096;2023-10-09T04:57:34;9.68;;;2.97;;
73550;SDS011;61816;53.582;10.096;2023-10-09T05:02:59;4.53;;;2.67;;
73550;SDS011;61816;53.582;10.096;2023-10-09T05:05:50;11.20;;;3.20;;
73550;SDS011;61816;53.582;10.096;2023-10-09T05:08:24;8.02;;;2.92;;
73550;SDS011;61816;53.582;10.096;2023-10-09T05:13:22;11.25;;;3.05;;
73550;SDS011;61816;53.582;10.096;2023-10-09T05:18:56;11.85;;;2.65;;
73550;SDS011;61816;53.582;10.096;2023-10-09T05:21:37;11.47;;;3.33;;
73550;SDS011;61816;53.582;10.096;2023-10-09T05:24:07;11.55;;;2.80;;
73550;SDS011;61816;53.582;10.096;2023-10-09T05:26:40;8.82;;;3.67;;
73550;SDS011;61816;53.582;10.096;2023-10-09T05:29:13;8.57;;;3.38;;
73550;SDS011;61816;53.582;10.096;2023-10-09T05:31:46;11.80;;;3.83;;
73550;SDS011;61816;53.582;10.096;2023-10-09T05:34:22;11.02;;;3.42;;
73550;SDS011;61816;53.582;10.096;2023-10-09T05:36:48;8.80;;;3.08;;
73550;SDS011;61816;53.582;10.096;2023-10-09T05:39:14;9.40;;;2.70;;
73550;SDS011;61816;53.582;10.096;2023-10-09T05:41:47;9.45;;;3.60;;
73550;SDS011;61816;53.582;10.096;2023-10-09T05:44:12;9.35;;;3.00;;
73550;SDS011;61816;53.582;10.096;2023-10-09T05:47:07;8.20;;;2.95;;
73550;SDS011;61816;53.582;10.096;2023-10-09T05:49:51;7.25;;;2.55;;
73550;SDS011;61816;53.582;10.096;2023-10-09T05:52:39;9.48;;;3.10;;
73550;SDS011;61816;53.582;10.096;2023-10-09T05:55:05;6.63;;;2.60;;
73550;SDS011;61816;53.582;10.096;2023-10-09T05:57:53;11.18;;;3.15;;
73550;SDS011;61816;53.582;10.096;2023-10-09T06:00:38;12.68;;;3.15;;
73550;SDS011;61816;53.582;10.096;2023-10-09T06:03:21;10.10;;;2.97;;
73550;SDS011;61816;53.582;10.096;2023-10-09T06:06:13;9.57;;;3.85;;
73550;SDS011;61816;53.582;10.096;2023-10-09T06:09:00;12.63;;;3.65;;
73550;SDS011;61816;53.582;10.096;2023-10-09T06:11:45;6.40;;;2.75;;
73550;SDS011;61816;53.582;10.096;2023-10-09T06:14:18;8.43;;;2.95;;
73550;SDS011;61816;53.582;10.096;2023-10-09T06:16:52;12.75;;;4.82;;
73550;SDS011;61816;53.582;10.096;2023-10-09T06:19:36;9.60;;;3.45;;
73550;SDS011;61816;53.582;10.096;2023-10-09T06:22:25;16.25;;;4.32;;
73550;SDS011;61816;53.582;10.096;2023-10-09T06:25:09;17.20;;;4.15;;
73550;SDS011;61816;53.582;10.096;2023-10-09T06:27:36;15.35;;;4.93;;
73550;SDS011;61816;53.582;10.096;2023-10-09T06:30:01;15.35;;;4.32;;
73550;SDS011;61816;53.582;10.096;2023-10-09T06:32:45;14.95;;;4.45;;
73550;SDS011;61816;53.582;10.096;2023-10-09T06:35:20;11.60;;;4.07;;
73550;SDS011;61816;53.582;10.096;2023-10-09T06:37:55;9.93;;;3.40;;
73550;SDS011;61816;53.582;10.096;2023-10-09T06:40:31;13.40;;;4.70;;
73550;SDS011;61816;53.582;10.096;2023-10-09T06:43:17;11.02;;;3.80;;
73550;SDS011;61816;53.582;10.096;2023-10-09T06:46:00;15.57;;;4.60;;
73550;SDS011;61816;53.582;10.096;2023-10-09T06:48:45;17.70;;;4.75;;
73550;SDS011;61816;53.582;10.096;2023-10-09T06:51:14;8.27;;;4.60;;
73550;SDS011;61816;53.582;10.096;2023-10-09T06:58:52;14.50;;;4.90;;
73550;SDS011;61816;53.582;10.096;2023-10-09T07:01:20;18.63;;;5.25;;
73550;SDS011;61816;53.582;10.096;2023-10-09T07:04:04;14.60;;;5.60;;
73550;SDS011;61816;53.582;10.096;2023-10-09T07:06:56;18.52;;;5.60;;
73550;SDS011;61816;53.582;10.096;2023-10-09T07:09:24;12.70;;;5.75;;
73550;SDS011;61816;53.582;10.096;2023-10-09T07:11:53;18.30;;;5.97;;
73550;SDS011;61816;53.582;10.096;2023-10-09T07:14:21;18.52;;;6.80;;
73550;SDS011;61816;53.582;10.096;2023-10-09T07:17:06;19.30;;;5.88;;
73550;SDS011;61816;53.582;10.096;2023-10-09T07:19:52;12.77;;;6.22;;
73550;SDS011;61816;53.582;10.096;2023-10-09T07:22:21;20.85;;;6.55;;
73550;SDS011;61816;53.582;10.096;2023-10-09T07:24:50;16.17;;;6.32;;
73550;SDS011;61816;53.582;10.096;2023-10-09T07:27:26;14.75;;;6.75;;
73550;SDS011;61816;53.582;10.096;2023-10-09T07:35:33;21.50;;;7.05;;
73550;SDS011;61816;53.582;10.096;2023-10-09T07:38:09;12.95;;;6.55;;
73550;SDS011;61816;53.582;10.096;2023-10-09T07:40:35;16.27;;;6.93;;
73550;SDS011;61816;53.582;10.096;2023-10-09T07:43:20;11.63;;;5.57;;
73550;SDS011;61816;53.582;10.096;2023-10-09T07:45:54;16.92;;;7.10;;
73550;SDS011;61816;53.582;10.096;2023-10-09T07:48:22;16.38;;;7.15;;
73550;SDS011;61816;53.582;10.096;2023-10-09T07:50:51;15.88;;;7.40;;
73550;SDS011;61816;53.582;10.096;2023-10-09T07:53:22;15.30;;;7.38;;
73550;SDS011;61816;53.582;10.096;2023-10-09T07:55:54;13.90;;;6.88;;
73550;SDS011;61816;53.582;10.096;2023-10-09T07:58:22;17.20;;;8.23;;
73550;SDS011;61816;53.582;10.096;2023-10-09T08:00:54;13.23;;;7.30;;
73550;SDS011;61816;53.582;10.096;2023-10-09T08:03:36;11.60;;;6.68;;
73550;SDS011;61816;53.582;10.096;2023-10-09T08:06:02;11.27;;;6.32;;
73550;SDS011;61816;53.582;10.096;2023-10-09T08:08:57;15.13;;;7.20;;
73550;SDS011;61816;53.582;10.096;2023-10-09T08:11:37;12.27;;;7.20;;
73550;SDS011;61816;53.582;10.096;2023-10-09T08:14:06;13.65;;;7.53;;
73550;SDS011;61816;53.582;10.096;2023-10-09T08:16:46;16.27;;;6.90;;
73550;SDS011;61816;53.582;10.096;2023-10-09T08:19:12;10.85;;;7.00;;
73550;SDS011;61816;53.582;10.096;2023-10-09T08:21:56;12.15;;;6.93;;
73550;SDS011;61816;53.582;10.096;2023-10-09T08:24:43;16.13;;;6.90;;
73550;SDS011;61816;53.582;10.096;2023-10-09T08:27:21;11.00;;;7.03;;
73550;SDS011;61816;53.582;10.096;2023-10-09T08:29:58;11.55;;;7.50;;
73550;SDS011;61816;53.582;10.096;2023-10-09T08:32:42;13.02;;;7.15;;
73550;SDS011;61816;53.582;10.096;2023-10-09T08:35:26;10.43;;;6.93;;
73550;SDS011;61816;53.582;10.096;2023-10-09T08:38:01;13.93;;;7.05;;
73550;SDS011;61816;53.582;10.096;2023-10-09T08:40:34;12.75;;;6.72;;
73550;SDS011;61816;53.582;10.096;2023-10-09T08:43:13;14.75;;;7.60;;
73550;SDS011;61816;53.582;10.096;2023-10-09T08:45:52;10.38;;;5.50;;
73550;SDS011;61816;53.582;10.096;2023-10-09T08:48:19;12.18;;;7.80;;
73550;SDS011;61816;53.582;10.096;2023-10-09T08:50:49;13.25;;;6.93;;
73550;SDS011;61816;53.582;10.096;2023-10-09T08:53:15;15.93;;;8.73;;
73550;SDS011;61816;53.582;10.096;2023-10-09T08:55:41;15.05;;;7.55;;
73550;SDS011;61816;53.582;10.096;2023-10-09T08:58:07;14.88;;;9.02;;
73550;SDS011;61816;53.582;10.096;2023-10-09T09:00:49;8.70;;;6.60;;
73550;SDS011;61816;53.582;10.096;2023-10-09T09:03:14;14.05;;;7.55;;
73550;SDS011;61816;53.582;10.096;2023-10-09T09:05:48;12.43;;;7.25;;
73550;SDS011;61816;53.582;10.096;2023-10-09T09:08:26;10.63;;;6.78;;
73550;SDS011;61816;53.582;10.096;2023-10-09T09:11:02;14.57;;;9.38;;
73550;SDS011;61816;53.582;10.096;2023-10-09T09:13:37;11.80;;;7.03;;
73550;SDS011;61816;53.582;10.096;2023-10-09T09:16:20;11.15;;;7.25;;
73550;SDS011;61816;53.582;10.096;2023-10-09T09:18:54;11.35;;;8.02;;
73550;SDS011;61816;53.582;10.096;2023-10-09T09:21:39;11.25;;;7.60;;
73550;SDS011;61816;53.582;10.096;2023-10-09T09:24:13;12.07;;;8.25;;
73550;SDS011;61816;53.582;10.096;2023-10-09T09:26:47;15.98;;;9.50;;
73550;SDS011;61816;53.582;10.096;2023-10-09T09:29:24;15.48;;;9.60;;
73550;SDS011;61816;53.582;10.096;2023-10-09T09:32:05;16.77;;;8.38;;
73550;SDS011;61816;53.582;10.096;2023-10-09T09:34:45;9.98;;;6.68;;
73550;SDS011;61816;53.582;10.096;2023-10-09T09:37:21;18.13;;;8.18;;
73550;SDS011;61816;53.582;10.096;2023-10-09T09:40:03;17.52;;;9.45;;
73550;SDS011;61816;53.582;10.096;2023-10-09T09:42:54;19.42;;;10.15;;
73550;SDS011;61816;53.582;10.096;2023-10-09T09:45:23;14.10;;;9.43;;
73550;SDS011;61816;53.582;10.096;2023-10-09T09:47:49;13.60;;;8.13;;
73550;SDS011;61816;53.582;10.096;2023-10-09T09:50:17;14.63;;;9.43;;
73550;SDS011;61816;53.582;10.096;2023-10-09T09:52:54;13.82;;;8.00;;
73550;SDS011;61816;53.582;10.096;2023-10-09T09:55:23;12.95;;;8.45;;
73550;SDS011;61816;53.582;10.096;2023-10-09T09:57:56;16.23;;;8.73;;
73550;SDS011;61816;53.582;10.096;2023-10-09T10:00:23;11.48;;;8.10;;
73550;SDS011;61816;53.582;10.096;2023-10-09T10:02:54;13.32;;;8.35;;
73550;SDS011;61816;53.582;10.096;2023-10-09T10:05:24;10.73;;;6.82;;
73550;SDS011;61816;53.582;10.096;2023-10-09T10:07:56;15.10;;;8.25;;
73550;SDS011;61816;53.582;10.096;2023-10-09T10:10:36;11.30;;;7.43;;
73550;SDS011;61816;53.582;10.096;2023-10-09T10:13:04;10.45;;;7.38;;
73550;SDS011;61816;53.582;10.096;2023-10-09T10:15:56;12.43;;;8.02;;
73550;SDS011;61816;53.582;10.096;2023-10-09T10:18:30;19.10;;;8.15;;
73550;SDS011;61816;53.582;10.096;2023-10-09T10:21:09;14.60;;;8.45;;
73550;SDS011;61816;53.582;10.096;2023-10-09T10:23:58;14.30;;;8.13;;
73550;SDS011;61816;53.582;10.096;2023-10-09T10:26:31;12.07;;;6.95;;
73550;SDS011;61816;53.582;10.096;2023-10-09T10:34:19;13.30;;;6.88;;
73550;SDS011;61816;53.582;10.096;2023-10-09T10:36:48;14.07;;;8.13;;
73550;SDS011;61816;53.582;10.096;2023-10-09T10:39:17;13.32;;;6.90;;
73550;SDS011;61816;53.582;10.096;2023-10-09T10:41:56;14.52;;;7.40;;
73550;SDS011;61816;53.582;10.096;2023-10-09T10:44:30;14.60;;;8.73;;
73550;SDS011;61816;53.582;10.096;2023-10-09T10:47:07;10.32;;;6.47;;
73550;SDS011;61816;53.582;10.096;2023-10-09T10:49:47;8.63;;;6.15;;
73550;SDS011;61816;53.582;10.096;2023-10-09T10:52:22;10.10;;;6.70;;
73550;SDS011;61816;53.582;10.096;2023-10-09T10:55:13;19.17;;;8.95;;
73550;SDS011;61816;53.582;10.096;2023-10-09T10:57:54;15.63;;;7.55;;
73550;SDS011;61816;53.582;10.096;2023-10-09T11:00:28;10.07;;;6.35;;
73550;SDS011;61816;53.582;10.096;2023-10-09T11:03:19;8.07;;;5.05;;
73550;SDS011;61816;53.582;10.096;2023-10-09T11:05:54;9.70;;;6.05;;
73550;SDS011;61816;53.582;10.096;2023-10-09T11:08:25;7.53;;;4.43;;
73550;SDS011;61816;53.582;10.096;2023-10-09T11:11:10;7.82;;;5.22;;
73550;SDS011;61816;53.582;10.096;2023-10-09T11:13:40;5.68;;;4.05;;
73550;SDS011;61816;53.582;10.096;2023-10-09T11:16:22;12.23;;;5.10;;
73550;SDS011;61816;53.582;10.096;2023-10-09T11:19:10;8.55;;;4.93;;
73550;SDS011;61816;53.582;10.096;2023-10-09T11:21:55;6.80;;;4.72;;
73550;SDS011;61816;53.582;10.096;2023-10-09T11:24:30;6.47;;;4.63;;
73550;SDS011;61816;53.582;10.096;2023-10-09T11:27:02;6.18;;;3.78;;
73550;SDS011;61816;53.582;10.096;2023-10-09T11:29:32;13.35;;;4.45;;
73550;SDS011;61816;53.582;10.096;2023-10-09T11:32:07;6.03;;;4.10;;
73550;SDS011;61816;53.582;10.096;2023-10-09T11:34:42;13.30;;;5.32;;
73550;SDS011;61816;53.582;10.096;2023-10-09T11:37:17;7.75;;;5.40;;
73550;SDS011;61816;53.582;10.096;2023-10-09T11:39:58;5.82;;;4.13;;
73550;SDS011;61816;53.582;10.096;2023-10-09T11:42:28;7.57;;;4.30;;
73550;SDS011;61816;53.582;10.096;2023-10-09T11:45:18;7.35;;;5.03;;
73550;SDS011;61816;53.582;10.096;2023-10-09T11:47:48;4.88;;;3.88;;
73550;SDS011;61816;53.582;10.096;2023-10-09T11:50:44;6.82;;;4.50;;
73550;SDS011;61816;53.582;10.096;2023-10-09T11:53:17;5.68;;;4.75;;
73550;SDS011;61816;53.582;10.096;2023-10-09T11:55:49;6.32;;;3.67;;
73550;SDS011;61816;53.582;10.096;2023-10-09T11:58:16;7.20;;;3.90;;
73550;SDS011;61816;53.582;10.096;2023-10-09T12:00:51;9.48;;;2.97;;
73550;SDS011;61816;53.582;10.096;2023-10-09T12:03:31;4.63;;;3.70;;
73550;SDS011;61816;53.582;10.096;2023-10-09T12:05:58;5.07;;;3.33;;
73550;SDS011;61816;53.582;10.096;2023-10-09T12:08:33;5.28;;;3.42;;
73550;SDS011;61816;53.582;10.096;2023-10-09T12:11:00;3.65;;;3.10;;
73550;SDS011;61816;53.582;10.096;2023-10-09T12:13:33;3.47;;;2.78;;
73550;SDS011;61816;53.582;10.096;2023-10-09T12:15:58;3.92;;;2.60;;
73550;SDS011;61816;53.582;10.096;2023-10-09T12:18:24;3.15;;;2.75;;
73550;SDS011;61816;53.582;10.096;2023-10-09T12:20:50;3.33;;;2.90;;
73550;SDS011;61816;53.582;10.096;2023-10-09T12:23:19;5.00;;;3.10;;
73550;SDS011;61816;53.582;10.096;2023-10-09T12:25:48;3.42;;;2.55;;
73550;SDS011;61816;53.582;10.096;2023-10-09T12:28:14;4.95;;;2.72;;
73550;SDS011;61816;53.582;10.096;2023-10-09T12:30:40;5.75;;;2.80;;
73550;SDS011;61816;53.582;10.096;2023-10-09T12:33:06;4.13;;;2.78;;
73550;SDS011;61816;53.582;10.096;2023-10-09T12:35:40;4.78;;;3.15;;
73550;SDS011;61816;53.582;10.096;2023-10-09T12:38:06;4.97;;;3.58;;
73550;SDS011;61816;53.582;10.096;2023-10-09T12:40:35;3.58;;;2.75;;
73550;SDS011;61816;53.582;10.096;2023-10-09T12:43:13;4.07;;;2.95;;
73550;SDS011;61816;53.582;10.096;2023-10-09T12:45:44;4.35;;;2.95;;
73550;SDS011;61816;53.582;10.096;2023-10-09T12:48:10;3.03;;;2.45;;
73550;SDS011;61816;53.582;10.096;2023-10-09T12:50:37;4.50;;;3.05;;
73550;SDS011;61816;53.582;10.096;2023-10-09T12:53:11;5.05;;;3.42;;
73550;SDS011;61816;53.582;10.096;2023-10-09T12:55:42;4.20;;;2.95;;
73550;SDS011;61816;53.582;10.096;2023-10-09T12:58:09;3.97;;;2.80;;
73550;SDS011;61816;53.582;10.096;2023-10-09T13:00:39;5.38;;;3.47;;
73550;SDS011;61816;53.582;10.096;2023-10-09T13:03:09;5.70;;;3.63;;
73550;SDS011;61816;53.582;10.096;2023-10-09T13:05:48;4.10;;;2.90;;
73550;SDS011;61816;53.582;10.096;2023-10-09T13:08:21;5.13;;;3.60;;
73550;SDS011;61816;53.582;10.096;2023-10-09T13:10:49;4.10;;;3.35;;
73550;SDS011;61816;53.582;10.096;2023-10-09T13:13:25;4.93;;;3.47;;
73550;SDS011;61816;53.582;10.096;2023-10-09T13:16:15;9.15;;;3.92;;
73550;SDS011;61816;53.582;10.096;2023-10-09T13:18:55;5.72;;;3.53;;
73550;SDS011;61816;53.582;10.096;2023-10-09T13:21:22;7.47;;;4.05;;
73550;SDS011;61816;53.582;10.096;2023-10-09T13:23:50;5.22;;;3.65;;
73550;SDS011;61816;53.582;10.096;2023-10-09T13:26:19;4.03;;;3.63;;
73550;SDS011;61816;53.582;10.096;2023-10-09T13:28:49;8.48;;;4.65;;
73550;SDS011;61816;53.582;10.096;2023-10-09T13:31:16;6.45;;;3.28;;
73550;SDS011;61816;53.582;10.096;2023-10-09T13:33:43;8.27;;;4.47;;
73550;SDS011;61816;53.582;10.096;2023-10-09T13:36:09;4.55;;;3.95;;
73550;SDS011;61816;53.582;10.096;2023-10-09T13:38:43;3.75;;;3.17;;
73550;SDS011;61816;53.582;10.096;2023-10-09T13:41:09;5.47;;;4.10;;
73550;SDS011;61816;53.582;10.096;2023-10-09T13:43:41;8.48;;;3.58;;
73550;SDS011;61816;53.582;10.096;2023-10-09T13:46:10;6.50;;;3.97;;
73550;SDS011;61816;53.582;10.096;2023-10-09T13:48:37;5.00;;;4.00;;
73550;SDS011;61816;53.582;10.096;2023-10-09T13:51:12;4.90;;;3.65;;
73550;SDS011;61816;53.582;10.096;2023-10-09T13:53:44;6.32;;;3.78;;
73550;SDS011;61816;53.582;10.096;2023-10-09T13:56:14;6.20;;;4.03;;
73550;SDS011;61816;53.582;10.096;2023-10-09T13:58:50;4.68;;;3.17;;
73550;SDS011;61816;53.582;10.096;2023-10-09T14:01:20;4.80;;;3.70;;
73550;SDS011;61816;53.582;10.096;2023-10-09T14:03:55;7.07;;;4.22;;
73550;SDS011;61816;53.582;10.096;2023-10-09T14:06:22;6.88;;;4.25;;
73550;SDS011;61816;53.582;10.096;2023-10-09T14:08:56;4.95;;;3.65;;
73550;SDS011;61816;53.582;10.096;2023-10-09T14:11:29;6.22;;;4.45;;
73550;SDS011;61816;53.582;10.096;2023-10-09T14:13:55;6.65;;;4.88;;
73550;SDS011;61816;53.582;10.096;2023-10-09T14:16:20;6.05;;;3.83;;
73550;SDS011;61816;53.582;10.096;2023-10-09T14:18:52;8.13;;;5.35;;
73550;SDS011;61816;53.582;10.096;2023-10-09T14:21:22;8.20;;;4.95;;
73550;SDS011;61816;53.582;10.096;2023-10-09T14:23:50;7.00;;;5.45;;
73550;SDS011;61816;53.582;10.096;2023-10-09T14:26:15;8.68;;;6.35;;
73550;SDS011;61816;53.582;10.096;2023-10-09T14:28:43;12.50;;;5.57;;
73550;SDS011;61816;53.582;10.096;2023-10-09T14:31:09;8.32;;;6.05;;
73550;SDS011;61816;53.582;10.096;2023-10-09T14:33:37;9.63;;;6.55;;
73550;SDS011;61816;53.582;10.096;2023-10-09T14:36:05;8.98;;;6.53;;
73550;SDS011;61816;53.582;10.096;2023-10-09T14:38:30;7.45;;;6.03;;
73550;SDS011;61816;53.582;10.096;2023-10-09T14:40:58;7.40;;;6.35;;
73550;SDS011;61816;53.582;10.096;2023-10-09T14:43:25;14.05;;;6.50;;
73550;SDS011;61816;53.582;10.096;2023-10-09T14:45:53;13.93;;;8.07;;
73550;SDS011;61816;53.582;10.096;2023-10-09T14:48:20;8.77;;;6.28;;
73550;SDS011;61816;53.582;10.096;2023-10-09T14:50:51;13.02;;;6.70;;
73550;SDS011;61816;53.582;10.096;2023-10-09T14:55:55;10.77;;;7.95;;
73550;SDS011;61816;53.582;10.096;2023-10-09T14:58:21;11.30;;;8.13;;
73550;SDS011;61816;53.582;10.096;2023-10-09T15:00:50;11.82;;;8.13;;
73550;SDS011;61816;53.582;10.096;2023-10-09T15:03:16;9.05;;;7.03;;
73550;SDS011;61816;53.582;10.096;2023-10-09T15:05:45;9.70;;;6.88;;
73550;SDS011;61816;53.582;10.096;2023-10-09T15:08:11;7.75;;;6.30;;
73550;SDS011;61816;53.582;10.096;2023-10-09T15:10:49;12.73;;;6.90;;
73550;SDS011;61816;53.582;10.096;2023-10-09T15:13:17;14.40;;;10.82;;
73550;SDS011;61816;53.582;10.096;2023-10-09T15:15:43;10.18;;;7.75;;
73550;SDS011;61816;53.582;10.096;2023-10-09T15:18:10;10.05;;;7.07;;
73550;SDS011;61816;53.582;10.096;2023-10-09T15:20:39;15.77;;;7.53;;
73550;SDS011;61816;53.582;10.096;2023-10-09T15:23:05;8.63;;;6.85;;
73550;SDS011;61816;53.582;10.096;2023-10-09T15:25:32;18.85;;;8.43;;
73550;SDS011;61816;53.582;10.096;2023-10-09T15:27:59;15.38;;;8.32;;
73550;SDS011;61816;53.582;10.096;2023-10-09T15:30:25;12.00;;;8.02;;
73550;SDS011;61816;53.582;10.096;2023-10-09T15:32:52;9.45;;;6.57;;
73550;SDS011;61816;53.582;10.096;2023-10-09T15:35:18;9.18;;;6.97;;